メインページ
METAR-TAF:

METAR-TAF

空港 :

昆明長水国際空港

昆明, 中華人民共和国

緯度: 25-01N, 経度: 102-41E, 海抜: 1892m

現時点の気象観測

当レポートは30分前の14:00(UTC)に作成
変向風 6kt
気温 19°C
湿度 78%
気圧 1018 hPa
視程10km以上
高度4600ftの雲は散在している

METAR: ZPPP 201400Z VRB03MPS 9999 SCT046 19/15 Q1018 NOSIG

時間: 22:30 (14:30 UTC)

予報

当レポートは7時間27分前の07:03(UTC)に作成
予報は20日の 12時(UTC)から 21日の 12時(UTC)まで有効
東/南東の風 8kt
視程10km以上
高度2300ftの雲は散在している
高度4000ftの千切れ雲あり

TAF: ZPPP 200703Z 2012/2112 12004MPS 9999 SCT023 BKN040 TX26/2108Z TN16/2023Z

4,000以上の空港の気象観測と天気予報(METAR報とTAF報)

利用可能な観測所は地図上に黄色い丸と赤い丸で示す。

丸の上にカーソルを重ねると観測所名を参照できる。

次にクリックすると気象観測と天気予報を参照できる。

マップの切り替え:黒色「×」印の緑ボタンをクリックして拡大、「-」印の緑ボタンをクリックして縮小、緑色の三角印をクリックして隣りの地図に切り替え


METAR-TAF: